Time;durP1;ratioP1;P1;durP2;ratioP2;P2;SDS_P1;SDS_P2;PMS_P1;PMS_P2;Temp;Humidity;BMP_temperature;BMP_pressure;BME280_temperature;BME280_humidity;BME280_pressure;Samples;Min_cycle;Max_cycle;Signal;HPM_P1;HPM_P2
2023/03/12 00:03:14;;;;;;;3.30;1.90;;;22.70;58.20;;;;;;222058;1263;22634;-45
2023/03/12 00:08:18;;;;;;;4.40;1.90;;;22.60;58.50;;;;;;222184;1256;22591;-44
2023/03/12 00:13:22;;;;;;;4.50;2.20;;;22.50;58.70;;;;;;222297;1263;22639;-46
2023/03/12 00:18:26;;;;;;;4.00;2.60;;;22.50;58.40;;;;;;222004;1263;22520;-49
2023/03/12 00:23:30;;;;;;;5.30;2.50;;;22.50;58.50;;;;;;226384;1263;22855;-49
2023/03/12 00:28:36;;;;;;;6.20;2.50;;;22.50;58.50;;;;;;227050;1263;22583;-49
2023/03/12 00:33:40;;;;;;;4.40;3.30;;;22.60;57.80;;;;;;222096;1257;25316;-46
2023/03/12 00:38:44;;;;;;;3.10;2.30;;;22.40;58.30;;;;;;222143;1257;23937;-46
2023/03/12 00:43:50;;;;;;;3.00;2.30;;;22.20;59.30;;;;;;222054;1256;22532;-43
2023/03/12 00:48:54;;;;;;;6.80;2.20;;;22.10;59.50;;;;;;222138;1263;26499;-44
2023/03/12 00:53:58;;;;;;;3.10;2.50;;;22.10;60.10;;;;;;222223;1256;25605;-43
2023/03/12 00:59:02;;;;;;;2.90;2.40;;;22.30;60.10;;;;;;222103;1257;22513;-45
2023/03/12 01:04:06;;;;;;;2.30;2.10;;;22.20;60.00;;;;;;222242;1256;22765;-48
2023/03/12 01:09:11;;;;;;;2.70;2.50;;;22.20;60.10;;;;;;222178;1256;24374;-44
2023/03/12 01:14:15;;;;;;;5.30;2.60;;;22.20;60.10;;;;;;222254;1256;24234;-44
2023/03/12 01:19:19;;;;;;;4.30;2.50;;;22.10;60.10;;;;;;222226;1263;22604;-45
2023/03/12 01:24:23;;;;;;;3.60;2.30;;;22.00;60.30;;;;;;222038;1263;22511;-44
2023/03/12 01:29:27;;;;;;;3.60;2.30;;;22.00;60.30;;;;;;222066;1263;22519;-44
2023/03/12 01:34:34;;;;;;;2.90;2.00;;;21.90;60.20;;;;;;223646;1256;22522;-44
2023/03/12 01:39:38;;;;;;;4.00;3.10;;;22.00;60.40;;;;;;222106;1256;22933;-42
2023/03/12 01:45:00;;;;;;;2.80;2.60;;;21.90;60.00;;;;;;221786;1256;22517;-44
2023/03/12 01:50:07;;;;;;;2.50;2.30;;;21.80;60.10;;;;;;228271;1257;24254;-45
2023/03/12 01:55:14;;;;;;;3.20;2.40;;;21.90;59.60;;;;;;227859;1265;22554;-43
2023/03/12 02:00:25;;;;;;;4.10;2.00;;;22.00;59.10;;;;;;230052;1263;22137;-45
2023/03/12 02:05:37;;;;;;;3.80;2.20;;;21.90;58.90;;;;;;230006;1263;22335;-47
2023/03/12 02:10:41;;;;;;;3.40;2.00;;;22.00;58.50;;;;;;229976;1267;22126;-50
2023/03/12 02:15:45;;;;;;;2.30;2.10;;;21.90;58.50;;;;;;223700;1255;22619;-45
2023/03/12 02:21:01;;;;;;;2.60;2.10;;;21.80;58.90;;;;;;221831;1263;215020;-46
2023/03/12 02:26:06;;;;;;;2.20;2.00;;;21.60;59.30;;;;;;222030;1263;22617;-44
2023/03/12 02:31:14;;;;;;;3.00;2.00;;;21.50;59.10;;;;;;222020;1256;25697;-49
2023/03/12 02:36:19;;;;;;;2.10;1.70;;;21.50;60.10;;;;;;222212;1263;24231;-45
2023/03/12 02:41:30;;;;;;;3.10;1.80;;;21.90;59.30;;;;;;222229;1263;22521;-43
2023/03/12 02:46:39;;;;;;;2.00;1.60;;;22.20;58.90;;;;;;222109;1247;25220;-44
2023/03/12 02:51:44;;;;;;;3.00;1.80;;;22.40;57.80;;;;;;221856;1256;22533;-44
2023/03/12 02:56:49;;;;;;;2.30;1.60;;;22.60;57.40;;;;;;222061;1255;25462;-44
2023/03/12 03:01:56;;;;;;;3.30;1.90;;;22.80;56.60;;;;;;224718;1263;22760;-44
2023/03/12 03:07:00;;;;;;;3.30;1.80;;;23.00;55.80;;;;;;221848;1263;24354;-43
2023/03/12 03:12:05;;;;;;;1.70;1.60;;;22.90;55.90;;;;;;222144;1246;23920;-46
2023/03/12 03:17:10;;;;;;;1.50;1.40;;;23.00;55.90;;;;;;222264;1263;22514;-45
2023/03/12 03:22:14;;;;;;;1.80;1.60;;;23.00;55.70;;;;;;222313;1256;22539;-44
2023/03/12 03:27:19;;;;;;;1.50;1.40;;;23.10;55.60;;;;;;222134;1257;22510;-43
2023/03/12 03:32:23;;;;;;;1.40;1.30;;;23.00;55.10;;;;;;222025;1263;22525;-45
2023/03/12 03:37:27;;;;;;;2.20;1.50;;;23.00;55.10;;;;;;222385;1256;22619;-43
2023/03/12 03:42:31;;;;;;;2.20;1.60;;;23.10;55.40;;;;;;222204;1255;22647;-45
2023/03/12 03:47:36;;;;;;;2.10;1.90;;;23.00;55.00;;;;;;222316;1263;26258;-46
2023/03/12 03:52:41;;;;;;;1.60;1.50;;;23.00;55.00;;;;;;222149;1254;25361;-46
2023/03/12 03:57:45;;;;;;;1.70;1.30;;;23.00;54.80;;;;;;222195;1263;22518;-42
2023/03/12 04:02:49;;;;;;;1.60;1.50;;;23.00;54.20;;;;;;222086;1257;22490;-45
2023/03/12 04:07:55;;;;;;;1.50;1.40;;;23.10;54.70;;;;;;222128;1257;22501;-44
2023/03/12 04:13:00;;;;;;;2.40;1.90;;;23.00;54.60;;;;;;222032;1257;22512;-43
2023/03/12 04:18:05;;;;;;;1.20;1.10;;;23.10;54.50;;;;;;222102;1263;22518;-44
2023/03/12 04:23:10;;;;;;;1.40;1.30;;;23.20;54.80;;;;;;222032;1256;22756;-46
2023/03/12 04:28:14;;;;;;;1.40;1.30;;;23.20;55.10;;;;;;222154;1259;23261;-43
2023/03/12 04:33:18;;;;;;;1.10;1.10;;;23.30;54.30;;;;;;222189;1257;24175;-44
2023/03/12 04:38:24;;;;;;;1.10;1.00;;;23.20;54.20;;;;;;222087;1256;22508;-46
2023/03/12 04:43:30;;;;;;;1.40;1.10;;;23.20;54.10;;;;;;220934;1268;26605;-44
2023/03/12 04:48:35;;;;;;;1.10;1.10;;;23.20;54.00;;;;;;221065;1262;24268;-43
2023/03/12 04:53:39;;;;;;;1.60;1.30;;;23.20;53.90;;;;;;221102;1275;24197;-43
2023/03/12 04:58:45;;;;;;;1.30;1.10;;;23.10;54.00;;;;;;221365;1262;25313;-45
2023/03/12 05:03:50;;;;;;;1.40;1.20;;;23.00;54.10;;;;;;222253;1263;22580;-45
2023/03/12 05:08:54;;;;;;;3.00;1.50;;;23.10;54.30;;;;;;221975;1266;23882;-44
2023/03/12 05:13:58;;;;;;;1.30;1.20;;;23.00;54.10;;;;;;222361;1258;25562;-43
2023/03/12 05:19:04;;;;;;;1.20;1.00;;;22.80;54.30;;;;;;222261;1270;22524;-45
2023/03/12 05:24:10;;;;;;;2.00;1.40;;;22.70;54.50;;;;;;222393;1263;24206;-43
2023/03/12 05:29:15;;;;;;;1.20;1.10;;;22.60;54.60;;;;;;222268;1266;23879;-46
2023/03/12 05:34:20;;;;;;;2.00;1.20;;;22.50;54.70;;;;;;222298;1264;22506;-46
2023/03/12 05:39:26;;;;;;;1.10;1.00;;;22.40;54.90;;;;;;222335;1262;24229;-43
2023/03/12 05:44:34;;;;;;;0.90;0.90;;;22.40;55.00;;;;;;222362;1263;22991;-42
2023/03/12 05:49:38;;;;;;;1.90;1.10;;;22.30;55.50;;;;;;222383;1256;24046;-42
2023/03/12 05:54:43;;;;;;;1.10;1.00;;;22.30;55.30;;;;;;222127;1257;22653;-45
2023/03/12 05:59:47;;;;;;;0.80;0.80;;;22.20;55.30;;;;;;222320;1263;24081;-45
2023/03/12 06:04:52;;;;;;;1.20;1.10;;;22.10;55.20;;;;;;222287;1257;22586;-46
2023/03/12 06:09:56;;;;;;;1.20;1.00;;;22.00;55.20;;;;;;222215;1263;22636;-48
2023/03/12 06:15:00;;;;;;;1.20;1.10;;;22.00;55.40;;;;;;222420;1269;24308;-45
2023/03/12 06:20:06;;;;;;;1.20;1.00;;;22.00;55.50;;;;;;222250;1263;22530;-47
2023/03/12 06:25:10;;;;;;;1.30;1.20;;;21.90;55.40;;;;;;222091;1263;23155;-44
2023/03/12 06:30:15;;;;;;;2.80;0.80;;;21.90;55.40;;;;;;221886;1256;22515;-45
2023/03/12 06:35:20;;;;;;;1.00;0.90;;;21.80;55.70;;;;;;222195;1263;22635;-43
2023/03/12 06:40:24;;;;;;;1.00;0.90;;;21.80;55.50;;;;;;222230;1263;22657;-43
2023/03/12 06:45:28;;;;;;;0.80;0.80;;;22.00;55.80;;;;;;222270;1254;22508;-43
2023/03/12 06:50:32;;;;;;;1.00;0.90;;;22.30;55.00;;;;;;222325;1257;22623;-47
2023/03/12 06:55:36;;;;;;;2.40;1.20;;;22.60;54.40;;;;;;222087;1266;25306;-48
2023/03/12 07:00:40;;;;;;;1.00;0.90;;;22.90;54.10;;;;;;222344;1263;22522;-44
2023/03/12 07:05:46;;;;;;;0.90;0.90;;;23.00;53.50;;;;;;222259;1257;22504;-46
2023/03/12 07:10:50;;;;;;;1.10;0.90;;;23.00;53.10;;;;;;222221;1256;22507;-45
2023/03/12 07:15:54;;;;;;;0.80;0.80;;;23.10;53.00;;;;;;222188;1259;22646;-44
2023/03/12 07:20:59;;;;;;;0.60;0.60;;;23.20;52.90;;;;;;222108;1263;22522;-43
2023/03/12 07:26:04;;;;;;;0.80;0.80;;;23.20;52.80;;;;;;222151;1263;24180;-43
2023/03/12 07:31:08;;;;;;;2.10;0.80;;;23.30;52.60;;;;;;222158;1263;22511;-46
2023/03/12 07:36:13;;;;;;;0.60;0.60;;;23.30;52.60;;;;;;222230;1266;24246;-45
2023/03/12 07:41:17;;;;;;;1.60;1.00;;;23.30;52.50;;;;;;222242;1257;22518;-46
2023/03/12 07:46:21;;;;;;;0.80;0.80;;;23.40;52.40;;;;;;222317;1247;24226;-46
2023/03/12 07:51:26;;;;;;;0.80;0.80;;;23.30;52.60;;;;;;222305;1263;22783;-43
2023/03/12 07:56:30;;;;;;;1.80;1.10;;;23.30;52.00;;;;;;222406;1266;24434;-43
2023/03/12 08:01:36;;;;;;;0.80;0.70;;;23.30;52.40;;;;;;222287;1264;23961;-45
2023/03/12 08:06:41;;;;;;;1.00;0.80;;;23.30;52.40;;;;;;222433;1263;24365;-45
2023/03/12 08:11:45;;;;;;;3.40;0.80;;;23.40;52.40;;;;;;222363;1264;24340;-40
2023/03/12 08:16:49;;;;;;;3.60;1.10;;;23.50;52.50;;;;;;222214;1264;24102;-40
2023/03/12 08:21:54;;;;;;;6.60;0.80;;;23.50;52.70;;;;;;222247;1269;23913;-42
2023/03/12 08:26:57;;;;;;;4.20;1.20;;;23.50;52.60;;;;;;222313;1263;25344;-43
2023/03/12 08:32:02;;;;;;;6.10;0.90;;;23.40;52.90;;;;;;222205;1264;22633;-39
2023/03/12 08:37:08;;;;;;;2.50;1.00;;;23.40;53.00;;;;;;222217;1264;24184;-40
2023/03/12 08:42:12;;;;;;;2.60;1.00;;;23.30;52.90;;;;;;222185;1269;22498;-43
2023/03/12 08:47:16;;;;;;;2.30;0.90;;;23.30;53.00;;;;;;222305;1266;22531;-40
2023/03/12 08:52:20;;;;;;;5.70;0.90;;;23.30;53.00;;;;;;222287;1263;22504;-40
2023/03/12 08:57:24;;;;;;;3.70;1.00;;;23.30;52.90;;;;;;222129;1264;22511;-41
2023/03/12 09:02:28;;;;;;;1.70;1.00;;;23.20;53.40;;;;;;222236;1263;22505;-41
2023/03/12 09:07:32;;;;;;;2.50;0.90;;;23.10;53.10;;;;;;222017;1264;22527;-41
2023/03/12 09:12:36;;;;;;;3.00;1.10;;;23.00;53.20;;;;;;222013;1263;25482;-40
2023/03/12 09:17:40;;;;;;;4.00;1.10;;;22.90;53.60;;;;;;222352;1257;22518;-39
2023/03/12 09:22:45;;;;;;;5.00;1.30;;;22.90;53.60;;;;;;222285;1259;22515;-40
2023/03/12 09:27:49;;;;;;;3.50;1.50;;;23.00;54.10;;;;;;221980;1263;22607;-39
2023/03/12 09:32:53;;;;;;;7.80;1.10;;;22.90;54.30;;;;;;221923;1266;24167;-40
2023/03/12 09:37:57;;;;;;;5.90;1.20;;;22.80;54.40;;;;;;222087;1263;23926;-40
2023/03/12 09:43:37;;;;;;;3.00;1.20;;;22.80;54.40;;;;;;222174;1249;24065;-42
2023/03/12 09:48:41;;;;;;;3.20;1.00;;;22.80;54.70;;;;;;222325;1263;24097;-54
2023/03/12 09:53:53;;;;;;;5.20;0.90;;;22.80;54.70;;;;;;222034;1263;24263;-54
2023/03/12 09:58:57;;;;;;;3.70;1.10;;;22.70;54.90;;;;;;222227;1266;23010;-55
2023/03/12 10:04:36;;;;;;;3.40;1.10;;;22.70;55.20;;;;;;222103;1266;25214;-57
2023/03/12 10:10:12;;;;;;;1.90;1.20;;;22.60;55.40;;;;;;221685;1256;22534;-52
2023/03/12 10:15:40;;;;;;;3.40;1.30;;;22.60;55.30;;;;;;221866;1266;24229;-55
2023/03/12 10:20:56;;;;;;;3.50;1.40;;;22.70;55.00;;;;;;221724;1265;22511;-54
2023/03/12 10:26:09;;;;;;;4.90;1.70;;;22.70;55.60;;;;;;221644;1260;23251;-55
2023/03/12 10:31:37;;;;;;;3.20;1.40;;;22.80;54.90;;;;;;221598;1257;23489;-54
2023/03/12 10:36:41;;;;;;;3.40;1.50;;;22.70;55.20;;;;;;221870;1263;25312;-54
2023/03/12 10:41:47;;;;;;;2.30;1.20;;;22.80;55.10;;;;;;221825;1266;22514;-51
2023/03/12 10:47:20;;;;;;;4.00;1.40;;;22.80;54.90;;;;;;221741;1267;22520;-52
2023/03/12 10:52:24;;;;;;;6.50;1.60;;;22.90;55.30;;;;;;221742;1253;25396;-54
2023/03/12 10:57:39;;;;;;;7.70;1.40;;;22.80;55.10;;;;;;222038;1269;25395;-54
2023/03/12 11:02:47;;;;;;;2.70;1.70;;;22.70;54.90;;;;;;221735;1265;24214;-52
2023/03/12 11:07:51;;;;;;;11.40;1.80;;;22.70;55.10;;;;;;222111;1263;25457;-50
2023/03/12 11:12:59;;;;;;;5.90;1.80;;;22.80;55.20;;;;;;222043;1266;25318;-52
2023/03/12 11:18:35;;;;;;;6.90;1.80;;;22.70;55.40;;;;;;220590;1272;23554;-50
2023/03/12 11:24:03;;;;;;;7.30;2.30;;;22.70;55.40;;;;;;220548;1276;24343;-54
2023/03/12 11:29:21;;;;;;;14.80;3.10;;;22.70;55.30;;;;;;220520;1271;22633;-54
2023/03/12 11:34:36;;;;;;;10.80;4.20;;;22.60;55.50;;;;;;220972;1253;24324;-54
2023/03/12 11:40:17;;;;;;;12.90;3.40;;;22.50;57.40;;;;;;223640;1266;22597;-52
2023/03/12 11:45:30;;;;;;;8.30;3.70;;;22.60;57.40;;;;;;221686;1271;24046;-57
2023/03/12 11:51:00;;;;;;;13.00;3.70;;;22.50;56.90;;;;;;221813;1266;25272;-55
2023/03/12 11:56:20;;;;;;;15.10;3.60;;;22.50;56.70;;;;;;221976;1268;25278;-52
2023/03/12 12:01:27;;;;;;;8.10;3.30;;;22.50;56.40;;;;;;221887;1263;22512;-53
2023/03/12 12:07:10;;;;;;;10.70;3.40;;;22.50;56.20;;;;;;222146;1248;25474;-55
2023/03/12 12:12:20;;;;;;;5.40;2.90;;;22.50;56.00;;;;;;222305;1266;22516;-53
2023/03/12 12:17:36;;;;;;;5.60;3.10;;;22.40;55.80;;;;;;222492;1269;24221;-54
2023/03/12 12:22:46;;;;;;;7.20;2.80;;;22.30;55.70;;;;;;222500;1264;25290;-55
2023/03/12 12:28:19;;;;;;;6.20;2.80;;;22.30;55.70;;;;;;222666;1247;22522;-58
2023/03/12 12:33:49;;;;;;;6.30;3.00;;;22.30;55.40;;;;;;222636;1264;24147;-53
2023/03/12 12:39:06;;;;;;;5.80;3.00;;;22.30;55.30;;;;;;222641;1267;22598;-53
2023/03/12 12:44:14;;;;;;;7.00;3.10;;;22.30;54.90;;;;;;222458;1269;22514;-54
2023/03/12 12:49:25;;;;;;;4.60;2.20;;;22.20;55.00;;;;;;222621;1269;25287;-55
2023/03/12 12:54:58;;;;;;;5.10;3.10;;;22.20;54.90;;;;;;222233;1269;22615;-54
2023/03/12 13:00:21;;;;;;;5.70;2.90;;;22.20;55.10;;;;;;222244;1269;22524;-55
2023/03/12 13:05:28;;;;;;;8.20;3.10;;;22.20;54.70;;;;;;222258;1269;22515;-54
2023/03/12 13:10:32;;;;;;;7.20;3.10;;;22.10;55.00;;;;;;222264;1267;24307;-44
2023/03/12 13:15:42;;;;;;;4.00;2.60;;;22.20;54.70;;;;;;222274;1256;25537;-55
2023/03/12 13:20:52;;;;;;;5.10;2.20;;;22.10;54.60;;;;;;222284;1270;24386;-56
2023/03/12 13:26:18;;;;;;;4.00;2.40;;;22.10;54.50;;;;;;222363;1263;23894;-53
2023/03/12 13:31:23;;;;;;;3.40;2.40;;;22.00;54.40;;;;;;222283;1269;22781;-53
2023/03/12 13:36:28;;;;;;;3.60;2.40;;;22.00;54.40;;;;;;222366;1257;25469;-53
2023/03/12 13:41:36;;;;;;;5.10;2.70;;;22.10;54.10;;;;;;222218;1270;24184;-50
2023/03/12 13:46:43;;;;;;;4.60;2.10;;;22.00;54.00;;;;;;222443;1266;22524;-54
2023/03/12 13:52:01;;;;;;;3.70;2.50;;;22.10;53.90;;;;;;222417;1269;23789;-54
2023/03/12 13:57:31;;;;;;;3.80;2.20;;;22.00;53.70;;;;;;222365;1269;22650;-53
2023/03/12 14:02:41;;;;;;;4.50;2.30;;;22.20;54.00;;;;;;222066;1270;22512;-53
2023/03/12 14:08:18;;;;;;;5.50;2.80;;;22.10;53.40;;;;;;222302;1267;22522;-54
2023/03/12 14:13:27;;;;;;;2.50;2.10;;;22.00;53.40;;;;;;222429;1269;24239;-55
2023/03/12 14:18:36;;;;;;;3.00;2.40;;;22.00;53.40;;;;;;222195;1264;162894;-50
2023/03/12 14:23:55;;;;;;;3.80;1.90;;;22.00;53.30;;;;;;222299;1264;25320;-55
2023/03/12 14:29:16;;;;;;;2.20;1.90;;;22.00;53.30;;;;;;222412;1264;25297;-56
2023/03/12 14:34:25;;;;;;;4.00;2.30;;;21.90;53.20;;;;;;222320;1257;22514;-53
2023/03/12 14:39:35;;;;;;;3.80;2.00;;;21.90;52.80;;;;;;222348;1266;24330;-53
2023/03/12 14:44:53;;;;;;;3.50;2.10;;;21.80;53.10;;;;;;222280;1260;22656;-54
2023/03/12 14:49:58;;;;;;;3.70;1.90;;;21.80;53.10;;;;;;222295;1264;22511;-57
2023/03/12 14:55:12;;;;;;;3.70;2.20;;;21.80;53.10;;;;;;222293;1264;24304;-52
2023/03/12 15:00:25;;;;;;;2.40;2.20;;;21.80;53.70;;;;;;222241;1257;22531;-55
2023/03/12 15:05:32;;;;;;;1.70;1.60;;;21.80;53.30;;;;;;222304;1264;24189;-58
2023/03/12 15:10:39;;;;;;;1.90;1.70;;;22.10;52.40;;;;;;222295;1269;22792;-55
2023/03/12 15:15:49;;;;;;;4.80;1.70;;;22.40;51.70;;;;;;222346;1268;23892;-56
2023/03/12 15:20:57;;;;;;;2.70;2.10;;;22.60;51.20;;;;;;222041;1264;22574;-54
2023/03/12 15:26:21;;;;;;;3.00;2.10;;;22.70;50.80;;;;;;222132;1264;24211;-59
2023/03/12 15:31:42;;;;;;;2.50;1.80;;;22.90;50.70;;;;;;222492;1263;22881;-40
2023/03/12 15:36:50;;;;;;;2.90;2.00;;;23.00;50.50;;;;;;222577;1267;24738;-41
2023/03/12 15:41:58;;;;;;;3.10;2.10;;;23.10;50.20;;;;;;222203;1263;22899;-38
2023/03/12 15:47:10;;;;;;;3.80;1.90;;;23.10;49.60;;;;;;222089;1264;22545;-38
2023/03/12 15:52:20;;;;;;;3.80;1.90;;;23.10;50.00;;;;;;222154;1261;24267;-39
2023/03/12 15:57:25;;;;;;;1.90;1.70;;;23.10;49.90;;;;;;222197;1257;24183;-39
2023/03/12 16:02:36;;;;;;;2.60;1.80;;;23.20;49.80;;;;;;222239;1267;25467;-39
2023/03/12 16:07:42;;;;;;;2.40;2.20;;;23.20;49.70;;;;;;222287;1257;24178;-40
2023/03/12 16:12:49;;;;;;;3.50;2.10;;;23.30;49.50;;;;;;222194;1269;25907;-40
2023/03/12 16:17:55;;;;;;;2.00;1.80;;;23.40;49.30;;;;;;222319;1264;22583;-39
2023/03/12 16:23:03;;;;;;;2.50;1.80;;;23.30;49.20;;;;;;222310;1269;22720;-44
2023/03/12 16:28:13;;;;;;;2.40;1.90;;;23.30;49.60;;;;;;222435;1268;24228;-41
2023/03/12 16:33:20;;;;;;;3.20;2.20;;;23.40;48.80;;;;;;222235;1264;25084;-40
2023/03/12 16:38:25;;;;;;;2.70;2.00;;;23.40;48.90;;;;;;222688;1263;24193;-38
2023/03/12 16:43:35;;;;;;;1.90;1.80;;;23.40;48.80;;;;;;222367;1257;22668;-41
2023/03/12 16:48:41;;;;;;;1.90;1.80;;;23.30;48.80;;;;;;222313;1259;25405;-39
2023/03/12 16:53:49;;;;;;;2.10;1.90;;;23.40;48.70;;;;;;222451;1263;22517;-39
2023/03/12 16:59:36;;;;;;;1.70;1.60;;;23.40;49.00;;;;;;222508;1269;22524;-43
2023/03/12 17:04:42;;;;;;;2.40;2.20;;;23.40;48.50;;;;;;222372;1264;24063;-43
2023/03/12 17:09:47;;;;;;;3.00;2.10;;;23.40;48.40;;;;;;222311;1264;22572;-40
2023/03/12 17:14:52;;;;;;;3.10;1.90;;;23.40;48.50;;;;;;222378;1257;24184;-42
2023/03/12 17:19:58;;;;;;;3.20;1.70;;;23.40;48.40;;;;;;222344;1269;23903;-39
2023/03/12 17:25:08;;;;;;;3.00;1.80;;;23.30;48.30;;;;;;222424;1260;24254;-40
2023/03/12 17:30:14;;;;;;;2.60;2.30;;;23.30;48.40;;;;;;222369;1247;25681;-40
2023/03/12 17:35:21;;;;;;;2.90;2.00;;;23.00;48.70;;;;;;222348;1259;25484;-40
2023/03/12 17:40:29;;;;;;;2.80;2.10;;;23.00;49.00;;;;;;222378;1264;22523;-40
2023/03/12 17:45:36;;;;;;;2.50;2.30;;;22.80;49.40;;;;;;222109;1259;27065;-40
2023/03/12 17:50:42;;;;;;;2.70;2.10;;;22.80;49.30;;;;;;222364;1266;24183;-41
2023/03/12 17:55:51;;;;;;;3.00;2.20;;;22.60;49.30;;;;;;222252;1263;22633;-40
2023/03/12 18:01:00;;;;;;;2.40;2.00;;;22.60;49.40;;;;;;222013;1264;22519;-39
2023/03/12 18:06:13;;;;;;;2.50;2.20;;;22.60;49.30;;;;;;222164;1266;24179;-38
2023/03/12 18:11:18;;;;;;;2.80;2.40;;;22.50;49.30;;;;;;221980;1267;25214;-41
2023/03/12 18:16:25;;;;;;;2.70;2.20;;;22.40;49.40;;;;;;222325;1263;22521;-39
2023/03/12 18:21:31;;;;;;;4.10;2.30;;;22.40;49.50;;;;;;222391;1263;25423;-39
2023/03/12 18:26:35;;;;;;;2.40;2.20;;;22.30;49.50;;;;;;222463;1260;22529;-40
2023/03/12 18:31:42;;;;;;;2.60;2.20;;;22.30;49.90;;;;;;222106;1257;22504;-41
2023/03/12 18:36:49;;;;;;;2.60;2.40;;;22.20;49.90;;;;;;222571;1266;24321;-40
2023/03/12 18:41:56;;;;;;;2.90;2.60;;;22.10;49.50;;;;;;222254;1264;23356;-39
2023/03/12 18:47:03;;;;;;;3.30;2.80;;;22.10;49.50;;;;;;222413;1258;22705;-53
2023/03/12 18:52:10;;;;;;;6.10;3.10;;;22.00;49.60;;;;;;222496;1265;25214;-51
2023/03/12 18:57:18;;;;;;;8.30;2.90;;;21.90;49.00;;;;;;222361;1263;22666;-53
2023/03/12 19:02:25;;;;;;;7.10;2.80;;;22.00;49.80;;;;;;222268;1256;22914;-56
2023/03/12 19:07:32;;;;;;;4.00;2.80;;;22.00;49.50;;;;;;222038;1256;22510;-56
2023/03/12 19:12:42;;;;;;;4.90;3.10;;;22.00;49.50;;;;;;222128;1256;22533;-56
2023/03/12 19:17:59;;;;;;;6.30;3.10;;;22.10;49.60;;;;;;222025;1267;23237;-55
2023/03/12 19:23:05;;;;;;;4.30;3.00;;;22.10;49.60;;;;;;222019;1259;25320;-56
2023/03/12 19:28:12;;;;;;;11.80;3.10;;;22.10;50.30;;;;;;222032;1259;23163;-54
2023/03/12 19:33:21;;;;;;;6.40;2.90;;;22.00;50.90;;;;;;222126;1264;22523;-57
2023/03/12 19:38:28;;;;;;;5.50;3.40;;;21.90;51.90;;;;;;221785;1262;22524;-55
2023/03/12 19:43:38;;;;;;;11.00;3.20;;;22.10;51.50;;;;;;221871;1263;22819;-56
2023/03/12 19:48:47;;;;;;;5.20;2.80;;;22.00;51.70;;;;;;222165;1256;24222;-55
2023/03/12 19:53:53;;;;;;;8.70;3.20;;;22.10;52.30;;;;;;222185;1263;25315;-55
2023/03/12 19:59:02;;;;;;;7.60;3.30;;;22.10;51.80;;;;;;222148;1263;24222;-57
2023/03/12 20:04:10;;;;;;;7.10;3.20;;;22.10;51.40;;;;;;222042;1263;24189;-56
2023/03/12 20:09:18;;;;;;;5.50;3.20;;;21.90;51.80;;;;;;222045;1247;25330;-56
2023/03/12 20:14:25;;;;;;;6.40;3.00;;;21.90;51.40;;;;;;221881;1263;22520;-57
2023/03/12 20:19:31;;;;;;;5.50;3.10;;;21.80;51.70;;;;;;222084;1256;24170;-57
2023/03/12 20:24:40;;;;;;;6.60;3.50;;;21.80;51.50;;;;;;222189;1256;22931;-59
2023/03/12 20:29:56;;;;;;;8.30;3.80;;;21.80;52.00;;;;;;222205;1256;22520;-55
2023/03/12 20:35:02;;;;;;;6.80;3.30;;;21.80;52.10;;;;;;222231;1263;26845;-57
2023/03/12 20:40:11;;;;;;;5.30;3.40;;;22.20;52.10;;;;;;222315;1256;24182;-54
2023/03/12 20:45:21;;;;;;;9.00;3.10;;;22.60;51.60;;;;;;222133;1247;25435;-55
2023/03/12 20:50:27;;;;;;;8.30;3.40;;;22.80;50.90;;;;;;222310;1257;22518;-55
2023/03/12 20:55:38;;;;;;;6.70;3.30;;;22.90;50.80;;;;;;222069;1263;22511;-55
2023/03/12 21:00:45;;;;;;;7.00;3.70;;;23.00;51.20;;;;;;222322;1255;22521;-54
2023/03/12 21:05:57;;;;;;;8.10;3.60;;;23.10;50.30;;;;;;222218;1256;22527;-55
2023/03/12 21:11:07;;;;;;;5.80;3.10;;;23.20;49.60;;;;;;222254;1256;22652;-52
2023/03/12 21:16:13;;;;;;;9.50;3.30;;;23.20;49.70;;;;;;222248;1256;24308;-56
2023/03/12 21:21:20;;;;;;;11.20;4.10;;;23.20;49.60;;;;;;222185;1263;26667;-55
2023/03/12 21:26:25;;;;;;;5.20;3.20;;;23.20;49.40;;;;;;222336;1257;24385;-55
2023/03/12 21:31:30;;;;;;;8.00;3.50;;;23.20;49.50;;;;;;222359;1263;22526;-56
2023/03/12 21:36:35;;;;;;;9.40;3.30;;;23.40;51.30;;;;;;222231;1263;23011;-45
2023/03/12 21:42:19;;;;;;;11.10;3.60;;;23.40;50.80;;;;;;222122;1256;23876;-48
2023/03/12 21:47:24;;;;;;;8.90;4.40;;;23.40;51.00;;;;;;222386;1254;26117;-56
2023/03/12 21:52:29;;;;;;;7.40;3.50;;;23.30;51.40;;;;;;222141;1256;24520;-53
2023/03/12 21:57:34;;;;;;;5.80;3.10;;;23.20;51.50;;;;;;222159;1256;25262;-54
2023/03/12 22:02:42;;;;;;;4.90;3.40;;;23.00;52.20;;;;;;222191;1257;22654;-55
2023/03/12 22:07:46;;;;;;;4.00;2.80;;;22.90;51.90;;;;;;222128;1263;24299;-58
2023/03/12 22:12:50;;;;;;;5.90;3.60;;;22.90;52.90;;;;;;222059;1263;25395;-59
2023/03/12 22:17:54;;;;;;;6.30;3.70;;;22.80;52.30;;;;;;222396;1263;24302;-56
2023/03/12 22:22:59;;;;;;;6.40;3.40;;;22.70;52.50;;;;;;222092;1256;22534;-54
2023/03/12 22:28:03;;;;;;;8.00;3.40;;;22.60;52.30;;;;;;222164;1259;25308;-56
2023/03/12 22:33:08;;;;;;;6.00;3.90;;;22.60;52.10;;;;;;221961;1263;22519;-51
2023/03/12 22:38:12;;;;;;;5.30;3.50;;;22.50;52.20;;;;;;222023;1263;24200;-54
2023/03/12 22:43:15;;;;;;;3.70;3.20;;;22.40;52.20;;;;;;222019;1255;24263;-52
2023/03/12 22:48:19;;;;;;;3.40;3.00;;;22.30;52.10;;;;;;222265;1263;23911;-57
2023/03/12 22:53:24;;;;;;;3.80;3.20;;;22.30;52.40;;;;;;222157;1263;23931;-56
2023/03/12 22:58:29;;;;;;;5.00;3.40;;;22.20;52.90;;;;;;221944;1256;22507;-55
2023/03/12 23:03:36;;;;;;;4.80;3.00;;;22.20;52.30;;;;;;221920;1263;22511;-55
2023/03/12 23:08:41;;;;;;;4.40;3.20;;;22.10;52.00;;;;;;222054;1263;22518;-59
2023/03/12 23:13:47;;;;;;;3.80;2.80;;;22.10;52.70;;;;;;222346;1262;22522;-56
2023/03/12 23:18:52;;;;;;;4.80;3.20;;;22.10;52.50;;;;;;222279;1263;23021;-55
2023/03/12 23:45:20;;;;;;;7.50;3.40;;;22.00;52.30;;;;;;222147;1263;22527;-58
2023/03/12 23:50:25;;;;;;;7.60;3.30;;;22.00;53.30;;;;;;222220;1263;24092;-42
2023/03/12 23:55:29;;;;;;;6.90;3.40;;;22.00;53.30;;;;;;222427;1263;22521;-48
